Terminal Aerodrome Forecast
Issued by NWS

Home | Current Version | Previous Version | Text Only | Print | Product List | Glossary On
Versions: 1 2 3 4 5 6 7 8 9 10 11 12 13 14 15 16 17 18 19 20 21 22
000
FTUS41 KCAR 301919 AAA
TAFHUL
TAF AMD
KHUL 301919Z 3019/3118 20015G25KT P6SM SCT025 BKN200
     FM302300 20013KT P6SM VCSH BKN040
     FM310400 21011KT 5SM SHRA SCT015 OVC025
     FM310700 24008KT 2SM RA BR OVC007
     FM311100 32012G22KT P6SM SCT010 BKN025
     FM311400 35010G20KT P6SM SCT035=

USA.gov is the U.S. government's official web portal to all federal, state and local government web resources and services.